KDDC/DDC METAR and TAF weather

Enter ICAO airport designator
Station Type Date Time Source
KDDC METAR 2023/02/05 23:52 UTC NOAA

KDDC 052352Z AUTO 16010KT 10SM CLR 12/M06 A2999 RMK AO2 SLP162 T01171056 10172 20117 56012


Station Type Date Time Source
KDDC Decoded METAR 2023/02/05 23:52 UTC NOAA

DODGE CITY REGIONAL AIRPORT, KS, United States (KDDC) 37-46N 99-58W 789M
Feb 05, 2023 - 06:52 PM EST / 2023.02.05 2352 UTC
Wind: from the SSE (160 degrees) at 12 MPH (10 KT):0
Visibility: 10 mile(s):0
Sky conditions: clear
Temperature: 53.1 F (11.7 C)
Dew Point: 21.9 F (-5.6 C)
Relative Humidity: 29%
Pressure (altimeter): 29.99 in. Hg (1015 hPa)
Pressure tendency: 0.04 inches (1.2 hPa) lower than three hours ago
ob: KDDC 052352Z AUTO 16010KT 10SM CLR 12/M06 A2999 RMK AO2 SLP162 T01171056 10172 20117 56012
cycle: 0

Station Type Date Time Source
KDDC TAF 2023/02/05 18:22 UTC NOAA

TAF KDDC 051720Z 0518/0618 15009KT P6SM SCT250
FM060600 17013KT P6SM BKN120
FM061300 22012KT P6SM OVC180
FM061700 29015KT P6SM FEW230

Example: see airport list